Time;durP1;ratioP1;P1;durP2;ratioP2;P2;SDS_P1;SDS_P2;PMS_P1;PMS_P2;Temp;Humidity;BMP_temperature;BMP_pressure;BME280_temperature;BME280_humidity;BME280_pressure;Samples;Min_cycle;Max_cycle;Signal;HPM_P1;HPM_P2
2024/04/07 00:02:02;;;;;;;6.00;3.45;;;12.80;99.90;;;;;;5045754;28;20047;-81
2024/04/07 00:04:27;;;;;;;10.07;3.30;;;12.80;99.90;;;;;;5066889;28;20036;-78
2024/04/07 00:06:53;;;;;;;6.13;3.35;;;12.90;99.90;;;;;;5045915;28;20052;-79
2024/04/07 00:09:18;;;;;;;7.00;3.08;;;12.90;99.90;;;;;;5046591;28;20033;-81
2024/04/07 00:11:44;;;;;;;5.60;2.85;;;13.10;99.90;;;;;;5080068;28;20021;-78
2024/04/07 00:14:09;;;;;;;9.85;3.67;;;13.30;99.90;;;;;;5048101;28;20029;-79
2024/04/07 00:16:35;;;;;;;10.65;3.40;;;13.30;99.90;;;;;;5044617;28;20057;-79
2024/04/07 00:19:00;;;;;;;7.57;3.47;;;13.50;99.90;;;;;;5051022;28;20083;-79
2024/04/07 00:21:27;;;;;;;7.93;3.22;;;13.20;99.90;;;;;;5081712;28;20025;-78
2024/04/07 00:23:53;;;;;;;9.52;3.22;;;13.00;99.90;;;;;;5047972;28;20491;-80
2024/04/07 00:26:19;;;;;;;8.02;3.60;;;13.00;99.90;;;;;;5072668;28;20426;-79
2024/04/07 00:28:45;;;;;;;9.50;3.08;;;13.10;99.90;;;;;;5049918;28;20040;-78
2024/04/07 00:31:11;;;;;;;9.88;3.22;;;13.00;99.90;;;;;;5050314;28;20017;-79
2024/04/07 00:33:36;;;;;;;12.27;3.78;;;12.90;99.90;;;;;;5048489;28;20506;-79
2024/04/07 00:36:03;;;;;;;9.93;3.20;;;12.80;99.90;;;;;;5048039;28;20033;-79
2024/04/07 00:38:30;;;;;;;9.02;3.10;;;12.80;99.90;;;;;;5052894;28;20552;-79
2024/04/07 00:40:57;;;;;;;5.15;2.95;;;12.80;99.90;;;;;;5078739;28;20024;-79
2024/04/07 00:43:26;;;;;;;5.95;3.03;;;12.80;99.90;;;;;;5048725;28;20021;-79
2024/04/07 00:45:52;;;;;;;6.25;3.08;;;12.90;99.90;;;;;;5046774;28;20045;-79
2024/04/07 00:48:18;;;;;;;6.97;3.50;;;12.80;99.90;;;;;;5046507;28;20044;-79
2024/04/07 00:50:45;;;;;;;9.85;3.72;;;13.00;99.90;;;;;;5073586;28;20041;-79
2024/04/07 00:53:11;;;;;;;10.35;3.95;;;12.90;99.90;;;;;;5046320;28;20025;-81
2024/04/07 00:55:39;;;;;;;11.57;2.90;;;13.10;99.90;;;;;;5079086;28;20136;-81
2024/04/07 00:58:05;;;;;;;10.52;3.33;;;13.10;99.90;;;;;;5049777;28;20017;-78
2024/04/07 01:00:31;;;;;;;8.40;3.50;;;13.10;99.90;;;;;;5044327;28;20109;-79
2024/04/07 01:02:57;;;;;;;9.13;3.40;;;13.00;99.90;;;;;;5049881;28;20043;-79
2024/04/07 01:05:23;;;;;;;15.73;4.05;;;13.10;99.90;;;;;;5043214;28;20476;-78
2024/04/07 01:07:48;;;;;;;7.80;3.42;;;13.20;99.90;;;;;;5044565;28;20033;-78
2024/04/07 01:10:14;;;;;;;11.20;4.25;;;13.10;99.90;;;;;;5080507;28;20078;-79
2024/04/07 01:12:50;;;;;;;11.43;3.85;;;13.20;99.90;;;;;;5044433;28;20528;-78
2024/04/07 01:15:16;;;;;;;12.57;4.47;;;13.20;99.90;;;;;;5046668;28;20033;-80
2024/04/07 01:17:42;;;;;;;15.48;4.50;;;13.10;99.90;;;;;;5046885;28;20521;-80
2024/04/07 01:20:10;;;;;;;9.32;3.83;;;13.20;99.90;;;;;;5049059;28;20546;-80
2024/04/07 01:22:35;;;;;;;18.35;4.55;;;13.10;99.90;;;;;;5042477;28;20045;-78
2024/04/07 01:25:01;;;;;;;10.45;4.38;;;13.10;99.90;;;;;;5045314;28;20071;-79
2024/04/07 01:27:26;;;;;;;8.98;4.00;;;13.00;99.90;;;;;;5041346;28;20468;-79
2024/04/07 01:29:52;;;;;;;8.05;3.75;;;13.10;99.90;;;;;;5045945;28;20017;-79
2024/04/07 01:32:17;;;;;;;7.25;3.90;;;13.00;99.90;;;;;;5039980;28;20029;-79
2024/04/07 01:34:43;;;;;;;9.05;3.60;;;13.10;99.90;;;;;;5046527;28;20445;-78
2024/04/07 01:37:08;;;;;;;6.55;3.97;;;13.00;99.90;;;;;;5073884;28;20116;-80
2024/04/07 01:39:34;;;;;;;8.55;3.38;;;12.90;99.90;;;;;;5043440;28;20033;-79
2024/04/07 01:41:59;;;;;;;9.10;3.60;;;12.80;99.90;;;;;;5048351;28;20518;-79
2024/04/07 01:44:25;;;;;;;12.95;3.95;;;13.00;99.90;;;;;;5049014;28;20112;-78
2024/04/07 01:46:50;;;;;;;7.82;3.65;;;12.90;99.90;;;;;;5048590;28;20542;-81
2024/04/07 01:49:16;;;;;;;10.70;4.05;;;13.00;99.90;;;;;;5045813;28;20021;-80
2024/04/07 01:51:42;;;;;;;6.55;3.55;;;13.00;99.90;;;;;;5048621;28;20403;-80
2024/04/07 01:54:07;;;;;;;12.55;3.90;;;12.80;99.90;;;;;;5047921;28;20020;-82
2024/04/07 01:56:33;;;;;;;5.90;3.50;;;12.80;99.90;;;;;;5047722;28;20115;-79
2024/04/07 01:58:58;;;;;;;9.20;3.97;;;12.80;99.90;;;;;;5046007;28;20068;-79
2024/04/07 02:01:24;;;;;;;5.32;3.53;;;12.90;99.90;;;;;;5037566;28;20053;-79
2024/04/07 02:03:49;;;;;;;7.47;3.55;;;12.80;99.90;;;;;;5042849;28;20763;-79
2024/04/07 02:06:15;;;;;;;9.93;3.92;;;12.90;99.90;;;;;;5049087;28;21532;-79
2024/04/07 02:08:40;;;;;;;13.65;4.57;;;13.00;99.90;;;;;;5046066;28;20503;-80
2024/04/07 02:11:07;;;;;;;8.30;4.30;;;12.80;99.90;;;;;;5041539;28;20049;-81
2024/04/07 02:13:32;;;;;;;19.10;4.18;;;12.80;99.90;;;;;;5075661;28;20758;-78
2024/04/07 02:16:01;;;;;;;7.38;4.07;;;12.70;99.90;;;;;;5041597;28;20032;-79
2024/04/07 02:18:26;;;;;;;18.98;4.35;;;12.90;99.90;;;;;;5043427;28;20025;-79
2024/04/07 02:20:53;;;;;;;8.05;4.60;;;12.80;99.90;;;;;;5042299;28;20039;-79
2024/04/07 02:23:19;;;;;;;11.07;4.13;;;12.80;99.90;;;;;;5039941;28;20479;-79
2024/04/07 02:25:46;;;;;;;7.10;4.10;;;12.80;99.90;;;;;;5040555;28;20073;-80
2024/04/07 02:28:12;;;;;;;10.90;4.40;;;12.80;99.90;;;;;;5048616;28;20112;-81
2024/04/07 02:30:38;;;;;;;13.40;4.57;;;12.70;99.90;;;;;;5046540;28;20083;-78
2024/04/07 02:33:04;;;;;;;9.65;4.28;;;12.60;99.90;;;;;;5042396;28;20028;-78
2024/04/07 02:35:31;;;;;;;9.00;4.15;;;12.70;99.90;;;;;;5043799;28;20407;-79
2024/04/07 02:37:57;;;;;;;9.25;4.22;;;12.60;99.90;;;;;;5039342;28;20025;-79
2024/04/07 02:40:23;;;;;;;8.27;4.57;;;12.70;99.90;;;;;;5044424;28;20037;-79
2024/04/07 02:42:52;;;;;;;8.00;4.63;;;12.80;99.90;;;;;;5044896;28;20031;-79
2024/04/07 02:48:05;;;;;;;11.32;4.18;;;12.70;99.90;;;;;;5046519;28;20605;-80
2024/04/07 02:50:32;;;;;;;8.80;4.30;;;12.70;99.90;;;;;;5045272;28;20025;-78
2024/04/07 02:52:58;;;;;;;7.72;3.42;;;12.70;99.90;;;;;;5044957;28;20021;-79
2024/04/07 02:55:23;;;;;;;7.03;3.50;;;12.40;99.90;;;;;;5042988;28;20024;-81
2024/04/07 02:57:49;;;;;;;12.02;3.15;;;12.30;99.90;;;;;;5041020;28;20039;-79
2024/04/07 03:00:15;;;;;;;8.88;3.63;;;12.20;99.90;;;;;;5044659;28;20025;-79
2024/04/07 03:02:44;;;;;;;8.70;2.97;;;12.10;99.90;;;;;;5042739;28;20163;-80
2024/04/07 03:05:11;;;;;;;11.47;3.30;;;12.10;99.90;;;;;;5042607;28;20533;-79
2024/04/07 03:07:37;;;;;;;7.63;3.58;;;12.30;99.90;;;;;;5039290;28;20345;-78
2024/04/07 03:10:04;;;;;;;12.30;4.05;;;12.10;99.90;;;;;;5040237;28;20021;-79
2024/04/07 03:12:29;;;;;;;7.00;3.22;;;12.20;99.90;;;;;;5046430;28;20110;-80
2024/04/07 03:14:56;;;;;;;9.63;3.67;;;12.20;99.90;;;;;;5037273;28;20053;-79
2024/04/07 03:17:21;;;;;;;6.60;3.72;;;12.20;99.90;;;;;;5045639;28;20028;-79
2024/04/07 03:19:47;;;;;;;10.45;4.05;;;12.20;99.90;;;;;;5042518;28;20376;-78
2024/04/07 03:22:13;;;;;;;9.80;3.95;;;12.40;99.90;;;;;;5047414;28;20025;-78
2024/04/07 03:24:39;;;;;;;7.07;3.40;;;12.20;99.90;;;;;;5044306;28;20483;-79
2024/04/07 03:27:08;;;;;;;6.75;3.45;;;12.10;99.90;;;;;;5038619;28;20645;-81
2024/04/07 03:29:33;;;;;;;9.75;3.47;;;12.00;99.90;;;;;;5035658;28;20056;-79
2024/04/07 03:31:59;;;;;;;5.60;3.50;;;12.10;99.90;;;;;;5043821;28;20105;-78
2024/04/07 03:34:25;;;;;;;5.72;3.60;;;12.20;99.90;;;;;;5045413;28;20025;-78
2024/04/07 03:36:51;;;;;;;8.10;3.63;;;12.30;99.90;;;;;;5041949;28;20111;-80
2024/04/07 03:39:17;;;;;;;18.70;4.43;;;12.20;99.90;;;;;;5040982;28;20109;-80
2024/04/07 03:41:43;;;;;;;5.65;3.60;;;12.30;99.90;;;;;;5040949;28;20022;-78
2024/04/07 03:44:09;;;;;;;9.13;4.30;;;12.30;99.90;;;;;;5044705;28;20516;-79
2024/04/07 03:46:37;;;;;;;13.60;3.75;;;12.20;99.90;;;;;;5078041;28;20033;-78
2024/04/07 03:49:03;;;;;;;6.25;2.78;;;12.10;99.90;;;;;;5040418;28;20029;-79
2024/04/07 03:51:28;;;;;;;7.75;3.30;;;12.00;99.90;;;;;;5049952;28;20036;-80
2024/04/07 03:53:54;;;;;;;9.05;3.53;;;11.80;99.90;;;;;;5049235;28;20099;-80
2024/04/07 03:56:20;;;;;;;8.93;3.45;;;11.80;99.90;;;;;;5051706;28;20094;-78
2024/04/07 03:58:45;;;;;;;6.78;3.00;;;11.70;99.90;;;;;;5043531;28;20108;-78
2024/04/07 04:01:11;;;;;;;3.50;2.75;;;11.70;99.90;;;;;;5041792;28;20025;-79
2024/04/07 04:03:36;;;;;;;13.40;2.97;;;12.00;99.90;;;;;;5048316;28;20029;-79
2024/04/07 04:06:03;;;;;;;3.83;2.88;;;12.10;99.90;;;;;;5050424;28;20522;-79
2024/04/07 04:08:29;;;;;;;7.25;3.22;;;12.20;99.90;;;;;;5049880;28;20013;-79
2024/04/07 04:10:54;;;;;;;6.22;3.17;;;12.10;99.90;;;;;;5038327;28;20086;-79
2024/04/07 04:13:20;;;;;;;9.45;2.95;;;12.30;99.90;;;;;;5045019;28;20025;-80
2024/04/07 04:15:46;;;;;;;14.05;3.50;;;12.00;99.90;;;;;;5046226;28;20028;-79
2024/04/07 04:18:12;;;;;;;14.32;3.08;;;12.10;99.90;;;;;;5078958;28;20078;-79
2024/04/07 04:20:41;;;;;;;9.90;3.78;;;12.20;99.90;;;;;;5045323;28;20091;-77
2024/04/07 04:23:07;;;;;;;6.05;3.17;;;12.30;99.90;;;;;;5040550;28;20383;-78
2024/04/07 04:25:33;;;;;;;14.48;3.47;;;12.50;99.90;;;;;;5046602;28;20032;-79
2024/04/07 04:27:59;;;;;;;17.95;3.38;;;12.30;99.90;;;;;;5048502;28;20100;-80
2024/04/07 04:30:24;;;;;;;20.02;4.55;;;12.20;99.90;;;;;;5039345;28;20506;-78
2024/04/07 04:32:53;;;;;;;13.57;3.30;;;12.20;99.90;;;;;;5039465;28;20056;-80
2024/04/07 04:35:19;;;;;;;16.75;3.78;;;12.30;99.90;;;;;;5046740;28;20093;-78
2024/04/07 04:37:44;;;;;;;7.70;4.05;;;12.30;99.90;;;;;;5046908;28;20022;-80
2024/04/07 04:40:11;;;;;;;12.95;4.13;;;12.40;99.90;;;;;;5044366;28;20029;-79
2024/04/07 04:42:37;;;;;;;12.85;3.38;;;12.30;99.90;;;;;;5050750;28;20021;-80
2024/04/07 04:45:05;;;;;;;8.85;3.25;;;12.20;99.90;;;;;;5049573;28;20036;-79
2024/04/07 04:47:31;;;;;;;11.43;3.67;;;12.40;99.90;;;;;;5046113;28;20021;-78
2024/04/07 04:49:56;;;;;;;12.88;3.70;;;12.20;99.90;;;;;;5043053;28;20099;-80
2024/04/07 04:52:22;;;;;;;12.70;3.20;;;12.10;99.90;;;;;;5045470;28;20036;-75
2024/04/07 04:54:47;;;;;;;7.82;3.10;;;11.90;99.90;;;;;;5072392;28;20036;-78
2024/04/07 04:57:13;;;;;;;10.25;3.42;;;11.90;99.90;;;;;;5049118;28;20029;-80
2024/04/07 04:59:39;;;;;;;14.15;3.88;;;12.10;99.90;;;;;;5047782;28;20029;-78
2024/04/07 05:02:04;;;;;;;7.55;3.95;;;12.10;99.90;;;;;;5041818;28;20479;-78
2024/04/07 05:04:31;;;;;;;12.50;4.20;;;12.20;99.90;;;;;;5047369;28;20041;-79
2024/04/07 05:06:56;;;;;;;6.13;3.58;;;12.10;99.90;;;;;;5047884;28;20016;-78
2024/04/07 05:09:22;;;;;;;5.50;3.60;;;12.20;99.90;;;;;;5047120;28;20410;-79
2024/04/07 05:11:47;;;;;;;11.68;4.72;;;12.20;99.90;;;;;;5048212;28;20041;-78
2024/04/07 05:14:13;;;;;;;10.18;3.70;;;12.20;99.90;;;;;;5048274;28;20055;-80
2024/04/07 05:16:38;;;;;;;12.57;4.43;;;12.20;99.90;;;;;;5048371;28;20033;-78
2024/04/07 05:19:04;;;;;;;12.38;4.88;;;12.30;99.90;;;;;;5043929;28;20025;-78
2024/04/07 05:21:31;;;;;;;8.25;3.90;;;12.50;99.90;;;;;;5046521;28;20029;-78
2024/04/07 05:23:57;;;;;;;13.57;3.97;;;12.40;99.90;;;;;;5053591;28;20386;-77
2024/04/07 05:26:23;;;;;;;16.65;3.95;;;12.40;99.90;;;;;;5055027;28;20017;-77
2024/04/07 05:28:48;;;;;;;6.22;3.33;;;12.30;99.90;;;;;;5086389;28;20029;-76
2024/04/07 05:31:14;;;;;;;10.63;3.55;;;12.40;99.90;;;;;;5054461;28;20021;-78
2024/04/07 05:33:40;;;;;;;7.53;2.75;;;12.30;99.90;;;;;;5051007;28;20108;-77
2024/04/07 05:36:06;;;;;;;12.52;3.63;;;12.30;99.90;;;;;;5054070;28;20025;-80
2024/04/07 05:38:34;;;;;;;6.18;3.42;;;12.30;99.90;;;;;;5057388;28;20028;-78
2024/04/07 05:41:00;;;;;;;7.53;3.63;;;12.20;99.90;;;;;;5055148;28;20028;-76
2024/04/07 05:43:26;;;;;;;6.32;3.20;;;12.30;99.90;;;;;;5055142;28;20478;-77
2024/04/07 05:45:52;;;;;;;11.13;3.70;;;12.20;99.90;;;;;;5088745;28;20023;-77
2024/04/07 05:48:20;;;;;;;11.70;3.97;;;12.10;99.90;;;;;;5052023;28;20021;-82
2024/04/07 05:50:46;;;;;;;11.27;3.65;;;12.10;99.90;;;;;;5054593;28;20029;-78
2024/04/07 05:53:12;;;;;;;8.65;3.45;;;12.10;99.90;;;;;;5054083;28;20106;-80
2024/04/07 05:55:37;;;;;;;8.95;3.10;;;12.00;99.90;;;;;;5081959;28;20141;-80
2024/04/07 05:58:03;;;;;;;14.95;3.53;;;11.80;99.90;;;;;;5056050;28;20490;-77
2024/04/07 06:00:34;;;;;;;20.30;4.03;;;12.00;99.90;;;;;;5089119;28;20048;-77
2024/04/07 06:03:03;;;;;;;14.73;3.67;;;12.10;99.90;;;;;;5051733;28;20041;-81
2024/04/07 06:05:30;;;;;;;18.05;3.25;;;12.10;99.90;;;;;;5087302;28;20410;-78
2024/04/07 06:07:55;;;;;;;17.80;3.75;;;12.40;99.90;;;;;;5056684;28;20035;-81
2024/04/07 06:10:22;;;;;;;13.05;3.67;;;12.40;99.90;;;;;;5053626;28;20688;-80
2024/04/07 06:12:47;;;;;;;11.20;3.85;;;12.40;99.90;;;;;;5053726;28;20029;-79
2024/04/07 06:15:13;;;;;;;9.45;3.05;;;12.50;99.90;;;;;;5051725;28;20017;-79
2024/04/07 06:17:38;;;;;;;18.23;3.80;;;12.70;99.90;;;;;;5053480;28;20025;-82
2024/04/07 06:20:04;;;;;;;10.23;3.40;;;12.80;99.90;;;;;;5045089;28;20491;-80
2024/04/07 06:22:30;;;;;;;11.38;2.65;;;12.90;99.90;;;;;;5043457;28;20033;-80
2024/04/07 06:24:57;;;;;;;17.60;2.88;;;12.90;99.90;;;;;;5052013;28;20502;-77
2024/04/07 06:27:23;;;;;;;12.27;2.45;;;13.10;99.90;;;;;;5082634;28;20482;-78
2024/04/07 06:29:49;;;;;;;10.82;2.60;;;13.30;99.90;;;;;;5049441;28;20025;-79
2024/04/07 06:32:15;;;;;;;8.07;2.72;;;13.50;99.90;;;;;;5053548;28;20427;-78
2024/04/07 06:34:40;;;;;;;9.80;2.38;;;13.60;99.90;;;;;;5056615;28;20017;-78
2024/04/07 06:37:06;;;;;;;14.05;3.22;;;13.80;99.90;;;;;;5053721;28;20556;-81
2024/04/07 06:39:31;;;;;;;14.15;2.90;;;14.00;99.90;;;;;;5050805;28;20039;-80
2024/04/07 06:41:57;;;;;;;5.97;3.25;;;14.10;99.90;;;;;;5083841;28;20028;-79
2024/04/07 06:44:23;;;;;;;9.98;2.95;;;14.00;99.90;;;;;;5052492;28;20482;-78
2024/04/07 06:46:48;;;;;;;13.70;3.85;;;14.20;99.90;;;;;;5043534;28;20485;-80
2024/04/07 06:49:14;;;;;;;7.43;3.85;;;14.10;99.90;;;;;;5041503;28;20087;-81
2024/04/07 06:51:39;;;;;;;15.52;3.60;;;14.20;99.90;;;;;;5040391;28;20402;-80
2024/04/07 06:54:05;;;;;;;10.90;3.83;;;14.30;99.90;;;;;;5045502;28;20029;-80
2024/04/07 06:56:30;;;;;;;4.70;3.17;;;14.30;99.90;;;;;;5074659;28;20461;-80
2024/04/07 06:58:56;;;;;;;9.32;3.80;;;14.40;99.90;;;;;;5045694;28;20146;-80
2024/04/07 07:01:21;;;;;;;6.15;3.08;;;14.40;99.90;;;;;;5045351;28;20191;-78
2024/04/07 07:03:47;;;;;;;5.10;3.03;;;14.50;99.90;;;;;;5041409;28;20486;-77
2024/04/07 07:06:14;;;;;;;15.68;3.28;;;14.60;99.90;;;;;;5048368;28;20083;-78
2024/04/07 07:08:40;;;;;;;13.90;3.38;;;14.70;99.90;;;;;;5088073;28;20020;-81
2024/04/07 07:11:08;;;;;;;7.35;3.30;;;14.80;99.90;;;;;;5048670;28;20022;-81
2024/04/07 07:13:40;;;;;;;10.35;3.45;;;14.90;99.90;;;;;;5037891;28;20024;-78
2024/04/07 07:16:05;;;;;;;6.18;3.47;;;15.00;99.90;;;;;;5049014;28;20028;-79
2024/04/07 07:18:31;;;;;;;7.70;3.72;;;15.10;99.90;;;;;;5051838;28;20029;-81
2024/04/07 07:20:56;;;;;;;9.50;3.50;;;15.20;99.90;;;;;;5051307;28;20155;-77
2024/04/07 07:23:22;;;;;;;8.82;3.33;;;15.20;99.90;;;;;;5048244;28;20130;-78
2024/04/07 07:25:47;;;;;;;7.80;3.58;;;15.30;99.90;;;;;;5050809;28;20119;-77
2024/04/07 07:28:13;;;;;;;7.25;3.83;;;15.40;99.90;;;;;;5057524;28;20112;-77
2024/04/07 07:30:38;;;;;;;8.70;3.40;;;15.40;99.90;;;;;;5059330;28;20036;-77
2024/04/07 07:33:05;;;;;;;8.00;3.42;;;15.40;99.90;;;;;;5054932;28;20025;-76
2024/04/07 07:35:30;;;;;;;8.50;3.58;;;15.50;99.90;;;;;;5042879;28;20590;-77
2024/04/07 07:37:56;;;;;;;7.30;3.67;;;15.60;99.90;;;;;;5050991;28;20144;-79
2024/04/07 07:40:22;;;;;;;5.82;3.58;;;15.60;99.90;;;;;;5046729;28;20155;-78
2024/04/07 07:42:48;;;;;;;6.35;3.58;;;15.70;99.90;;;;;;5081050;28;20052;-79
2024/04/07 07:45:16;;;;;;;4.93;2.80;;;15.80;99.90;;;;;;5072492;28;20609;-75
2024/04/07 07:47:42;;;;;;;10.18;3.00;;;15.90;99.90;;;;;;5044222;28;20167;-76
2024/04/07 07:50:07;;;;;;;4.45;2.72;;;16.00;99.90;;;;;;5045777;28;20149;-77
2024/04/07 07:52:33;;;;;;;6.32;2.83;;;16.10;99.90;;;;;;5041041;28;20036;-77
2024/04/07 07:54:58;;;;;;;4.80;3.10;;;16.10;99.90;;;;;;5042809;28;20708;-76
2024/04/07 07:57:24;;;;;;;7.45;3.13;;;16.00;99.90;;;;;;5076793;28;20486;-78
2024/04/07 07:59:49;;;;;;;5.32;3.17;;;15.90;99.90;;;;;;5048250;28;20060;-76
2024/04/07 08:02:15;;;;;;;7.28;3.30;;;16.10;99.90;;;;;;5078564;28;20045;-78
2024/04/07 08:04:41;;;;;;;5.80;3.03;;;16.30;99.90;;;;;;5050079;28;20096;-76
2024/04/07 08:07:06;;;;;;;10.52;3.03;;;16.60;99.90;;;;;;5050812;28;20163;-77
2024/04/07 08:09:32;;;;;;;6.15;2.70;;;16.70;99.90;;;;;;5045858;28;20108;-77
2024/04/07 08:11:59;;;;;;;6.63;3.00;;;16.60;99.90;;;;;;5054172;28;20123;-76
2024/04/07 08:14:25;;;;;;;4.60;3.10;;;16.80;99.90;;;;;;5060823;28;20027;-76
2024/04/07 08:16:50;;;;;;;4.78;3.17;;;17.10;99.90;;;;;;5053182;28;20026;-76
2024/04/07 08:19:16;;;;;;;10.27;3.65;;;17.10;99.90;;;;;;5050306;28;20047;-77
2024/04/07 08:21:42;;;;;;;7.43;2.78;;;17.00;99.90;;;;;;5048805;28;20489;-77
2024/04/07 08:24:07;;;;;;;6.28;2.63;;;16.90;99.90;;;;;;5047108;28;20027;-77
2024/04/07 08:26:33;;;;;;;6.57;2.70;;;16.80;99.90;;;;;;5048401;28;20029;-76
2024/04/07 08:28:58;;;;;;;5.65;3.05;;;16.80;99.90;;;;;;5048494;28;20112;-77
2024/04/07 08:31:24;;;;;;;14.85;2.97;;;16.90;99.90;;;;;;5048291;28;20036;-77
2024/04/07 08:33:49;;;;;;;7.00;2.90;;;16.90;99.90;;;;;;5053460;28;20025;-76
2024/04/07 08:36:15;;;;;;;5.57;2.78;;;16.90;99.90;;;;;;5043055;28;20033;-76
2024/04/07 08:38:41;;;;;;;4.05;2.50;;;17.00;99.90;;;;;;5074912;28;20032;-77
2024/04/07 08:41:10;;;;;;;3.72;2.33;;;17.10;99.90;;;;;;5043215;28;20036;-77
2024/04/07 08:43:38;;;;;;;7.65;2.55;;;17.20;99.90;;;;;;5047363;28;20029;-77
2024/04/07 08:46:13;;;;;;;5.45;2.25;;;17.40;99.90;;;;;;5039517;28;20040;-76
2024/04/07 08:48:40;;;;;;;4.93;2.42;;;17.40;99.90;;;;;;5036402;28;20758;-77
2024/04/07 08:51:09;;;;;;;7.38;1.95;;;17.60;99.90;;;;;;5045645;28;20028;-78
2024/04/07 08:53:41;;;;;;;6.10;2.08;;;17.70;99.90;;;;;;5043953;28;20025;-76
2024/04/07 08:56:13;;;;;;;12.05;2.60;;;17.90;99.90;;;;;;5050709;28;20014;-79
2024/04/07 08:58:40;;;;;;;7.13;2.08;;;17.90;99.90;;;;;;5046827;28;20484;-77
2024/04/07 09:01:11;;;;;;;7.53;1.80;;;18.00;99.90;;;;;;5074367;28;20045;-78
2024/04/07 09:03:37;;;;;;;4.20;2.05;;;18.20;99.90;;;;;;5044123;28;20021;-78
2024/04/07 09:06:03;;;;;;;8.63;2.95;;;18.40;99.90;;;;;;5043652;28;20016;-76
2024/04/07 09:08:30;;;;;;;6.28;2.13;;;18.40;99.90;;;;;;5050015;28;20030;-76
2024/04/07 09:10:56;;;;;;;5.22;1.95;;;18.30;99.90;;;;;;5073745;28;20098;-76
2024/04/07 09:13:21;;;;;;;6.03;1.83;;;18.20;99.90;;;;;;5078563;28;20402;-77
2024/04/07 09:15:47;;;;;;;4.90;2.08;;;18.10;99.90;;;;;;5048690;28;20032;-77
2024/04/07 09:18:13;;;;;;;6.70;1.92;;;18.00;99.90;;;;;;5047452;28;20422;-78
2024/04/07 09:20:39;;;;;;;7.40;2.15;;;17.80;99.90;;;;;;5051152;28;20401;-77
2024/04/07 09:23:04;;;;;;;6.90;2.00;;;17.90;99.90;;;;;;5044536;28;20021;-79
2024/04/07 09:25:33;;;;;;;14.32;2.10;;;18.10;99.90;;;;;;5044327;28;20152;-79
2024/04/07 09:27:59;;;;;;;5.30;2.10;;;18.50;99.90;;;;;;5045588;28;20028;-76
2024/04/07 09:30:25;;;;;;;7.85;2.33;;;18.40;99.90;;;;;;5044372;28;20022;-77
2024/04/07 09:32:51;;;;;;;8.45;1.73;;;18.20;99.90;;;;;;5038647;28;20034;-77
2024/04/07 09:35:16;;;;;;;9.77;1.98;;;18.10;99.90;;;;;;5073329;28;20024;-77
2024/04/07 09:37:43;;;;;;;5.25;2.03;;;18.10;99.90;;;;;;5045087;28;20041;-76
2024/04/07 09:40:09;;;;;;;13.07;2.03;;;18.30;99.90;;;;;;5073628;28;20119;-76
2024/04/07 09:42:38;;;;;;;10.82;2.05;;;18.30;99.90;;;;;;5047825;28;20029;-77
2024/04/07 09:45:06;;;;;;;7.43;1.48;;;18.40;99.90;;;;;;5045516;28;20029;-77
2024/04/07 09:47:37;;;;;;;10.55;1.75;;;18.50;99.90;;;;;;5048474;28;20061;-77
2024/04/07 09:50:17;;;;;;;7.15;2.10;;;18.80;99.90;;;;;;5041155;28;20021;-79
2024/04/07 09:52:50;;;;;;;7.90;1.50;;;19.20;99.90;;;;;;5038238;28;20048;-77
2024/04/07 09:55:17;;;;;;;6.35;1.85;;;19.50;99.90;;;;;;5059524;28;20025;-78
2024/04/07 09:57:43;;;;;;;12.80;2.00;;;19.90;99.90;;;;;;5048741;28;20025;-80
2024/04/07 10:00:12;;;;;;;12.18;1.73;;;19.90;99.90;;;;;;5046132;28;20029;-81
2024/04/07 10:02:40;;;;;;;3.25;1.35;;;19.40;99.90;;;;;;5047137;28;20021;-81
2024/04/07 10:05:06;;;;;;;9.68;1.77;;;19.10;99.90;;;;;;5039538;28;20030;-81
2024/04/07 10:07:36;;;;;;;11.30;2.05;;;19.10;99.90;;;;;;5042678;28;20399;-80
2024/04/07 10:10:06;;;;;;;7.97;2.55;;;19.10;99.90;;;;;;5043361;28;20049;-80
2024/04/07 10:12:31;;;;;;;;;;;18.90;99.90;;;;;;5044281;28;20065;-79
2024/04/07 10:15:00;;;;;;;5.32;2.28;;;19.00;99.90;;;;;;5047360;28;20382;-80
2024/04/07 10:17:27;;;;;;;12.32;1.90;;;19.10;99.90;;;;;;5060642;28;20415;-80
2024/04/07 10:19:54;;;;;;;9.95;2.10;;;18.90;99.90;;;;;;5044093;28;20029;-80
2024/04/07 10:22:21;;;;;;;9.15;1.40;;;18.70;99.90;;;;;;5075378;28;20558;-81
2024/04/07 10:24:52;;;;;;;6.85;1.60;;;18.50;99.90;;;;;;5046291;28;20033;-80
2024/04/07 10:27:25;;;;;;;8.98;1.90;;;18.60;99.90;;;;;;5069459;28;20510;-79
2024/04/07 10:29:54;;;;;;;11.35;2.17;;;18.80;99.90;;;;;;5074114;28;20017;-80
2024/04/07 10:32:36;;;;;;;14.75;2.28;;;19.00;99.90;;;;;;5076373;28;20048;-81
2024/04/07 10:35:07;;;;;;;11.73;2.53;;;19.10;99.90;;;;;;5036708;28;20104;-80
2024/04/07 10:37:38;;;;;;;20.02;2.10;;;19.50;99.90;;;;;;5073336;28;20036;-80
2024/04/07 10:40:05;;;;;;;14.00;2.15;;;19.70;99.90;;;;;;5074061;28;20075;-80
2024/04/07 10:42:32;;;;;;;9.00;2.17;;;19.50;98.50;;;;;;5046076;28;20020;-81
2024/04/07 10:44:57;;;;;;;12.30;2.35;;;19.40;99.20;;;;;;5041278;28;20033;-82
2024/04/07 10:47:23;;;;;;;11.15;2.17;;;19.40;97.60;;;;;;5068333;28;20023;-80
2024/04/07 10:49:50;;;;;;;13.27;2.10;;;19.50;94.00;;;;;;5046309;28;20148;-81
2024/04/07 10:52:18;;;;;;;5.38;1.85;;;19.50;94.60;;;;;;5046419;28;20033;-80
2024/04/07 10:54:45;;;;;;;4.20;1.80;;;19.50;93.60;;;;;;5077063;28;20039;-80
2024/04/07 10:57:11;;;;;;;8.25;2.47;;;19.80;94.80;;;;;;5041074;28;20025;-80
2024/04/07 10:59:37;;;;;;;12.13;1.77;;;19.80;95.70;;;;;;5047142;28;20017;-82
2024/04/07 11:02:03;;;;;;;14.15;2.08;;;19.80;96.50;;;;;;5086362;28;20119;-80
2024/04/07 11:04:29;;;;;;;15.93;2.55;;;20.10;96.90;;;;;;5049613;28;20020;-81
2024/04/07 11:06:55;;;;;;;12.50;1.85;;;20.40;96.90;;;;;;5085019;28;20017;-80
2024/04/07 11:09:20;;;;;;;6.65;2.38;;;20.40;97.00;;;;;;5058494;28;20020;-80
2024/04/07 11:11:46;;;;;;;19.90;3.00;;;20.40;95.10;;;;;;5052138;28;20029;-80
2024/04/07 11:14:12;;;;;;;6.82;2.00;;;20.40;95.40;;;;;;5047929;28;20055;-80
2024/04/07 11:16:39;;;;;;;8.27;2.83;;;20.20;95.00;;;;;;5047715;28;20033;-80
2024/04/07 11:19:04;;;;;;;13.32;2.70;;;20.20;96.10;;;;;;5047891;28;20543;-80
2024/04/07 11:21:30;;;;;;;16.27;2.05;;;20.00;95.30;;;;;;5048677;28;20140;-80
2024/04/07 11:23:56;;;;;;;10.73;2.47;;;20.20;94.70;;;;;;5047734;28;20032;-80
2024/04/07 11:26:22;;;;;;;7.82;1.90;;;20.30;95.60;;;;;;5072600;28;20013;-80
2024/04/07 11:28:51;;;;;;;13.95;2.10;;;20.50;95.60;;;;;;5068437;28;20025;-81
2024/04/07 11:31:18;;;;;;;19.08;3.13;;;20.20;94.70;;;;;;5043018;28;20013;-80
2024/04/07 11:33:45;;;;;;;15.90;2.45;;;20.20;95.10;;;;;;5047239;28;20021;-80
2024/04/07 11:36:11;;;;;;;7.85;1.73;;;20.30;94.40;;;;;;5043625;28;20095;-81
2024/04/07 11:38:38;;;;;;;12.68;1.92;;;20.40;94.60;;;;;;5073581;28;20543;-80
2024/04/07 11:41:04;;;;;;;22.15;2.35;;;20.20;93.80;;;;;;5039709;28;20024;-80
2024/04/07 11:43:29;;;;;;;9.88;1.85;;;20.10;93.20;;;;;;5041401;28;20052;-80
2024/04/07 11:45:55;;;;;;;19.67;2.05;;;20.00;93.50;;;;;;5074404;28;20037;-81
2024/04/07 11:48:21;;;;;;;10.10;2.08;;;20.00;95.20;;;;;;5045162;28;20432;-80
2024/04/07 11:50:46;;;;;;;8.10;1.88;;;19.80;94.40;;;;;;5048212;28;20499;-80
2024/04/07 11:53:12;;;;;;;10.80;2.80;;;19.80;97.00;;;;;;5042873;28;20025;-80
2024/04/07 11:55:37;;;;;;;14.52;2.78;;;19.70;94.40;;;;;;5041711;28;20846;-80
2024/04/07 11:58:03;;;;;;;10.45;2.15;;;20.00;94.80;;;;;;5045122;28;20494;-81
2024/04/07 12:00:29;;;;;;;18.25;2.00;;;20.10;95.00;;;;;;5045512;28;20029;-79
2024/04/07 12:02:54;;;;;;;16.45;2.45;;;20.00;92.90;;;;;;5046590;28;20032;-79
2024/04/07 12:05:20;;;;;;;12.60;2.47;;;20.10;93.80;;;;;;5047505;28;20096;-81
2024/04/07 12:07:45;;;;;;;13.43;3.13;;;20.30;93.30;;;;;;5076083;28;20479;-79
2024/04/07 12:10:11;;;;;;;16.55;3.20;;;20.60;94.00;;;;;;5045575;28;20506;-81
2024/04/07 12:12:36;;;;;;;9.52;2.35;;;20.60;92.40;;;;;;5040934;28;20442;-81
2024/04/07 12:15:04;;;;;;;8.82;2.38;;;20.50;92.20;;;;;;5050232;28;20033;-80
2024/04/07 12:17:29;;;;;;;13.93;3.25;;;20.40;88.80;;;;;;5047671;28;20550;-80
2024/04/07 12:19:55;;;;;;;12.77;3.33;;;20.20;90.00;;;;;;5049512;28;20109;-80
2024/04/07 12:22:24;;;;;;;15.23;2.63;;;20.20;90.40;;;;;;5047174;28;20029;-79
2024/04/07 12:24:50;;;;;;;8.35;2.47;;;20.00;91.20;;;;;;5044034;28;20497;-79
2024/04/07 12:27:17;;;;;;;15.20;3.28;;;19.90;92.00;;;;;;5045514;28;20052;-79
2024/04/07 12:29:43;;;;;;;18.73;3.17;;;20.00;93.30;;;;;;5050705;28;20059;-79
2024/04/07 12:32:08;;;;;;;14.63;3.72;;;20.00;93.20;;;;;;5040644;28;20467;-79
2024/04/07 12:34:34;;;;;;;12.13;3.05;;;20.00;95.80;;;;;;5045070;28;20029;-80
2024/04/07 12:37:00;;;;;;;13.65;2.60;;;20.00;95.20;;;;;;5080163;28;20507;-78
2024/04/07 12:39:26;;;;;;;22.40;3.03;;;20.00;93.90;;;;;;5046975;28;20040;-79
2024/04/07 12:41:51;;;;;;;26.13;5.07;;;20.00;93.90;;;;;;5048318;28;20072;-79